Time;durP1;ratioP1;P1;durP2;ratioP2;P2;SDS_P1;SDS_P2;PMS_P1;PMS_P2;Temp;Humidity;BMP_temperature;BMP_pressure;BME280_temperature;BME280_humidity;BME280_pressure;Samples;Min_cycle;Max_cycle;Signal;HPM_P1;HPM_P2
2023/01/01 00:00:05;;;;;;;3.53;3.23;;;;;;;;;;7383182;19;20136;-65
2023/01/01 00:02:30;;;;;;;4.13;3.63;;;;;;;;;;7380419;19;20121;-65
2023/01/01 00:04:56;;;;;;;4.00;3.57;;;;;;;;;;7377697;19;20580;-64
2023/01/01 00:07:21;;;;;;;3.23;3.00;;;;;;;;;;7383599;19;20129;-64
2023/01/01 00:12:31;;;;;;;4.60;3.60;;;;;;;;;;7384205;19;20237;-64
2023/01/01 00:14:57;;;;;;;2.60;2.50;;;;;;;;;;7382431;19;20541;-65
2023/01/01 00:17:22;;;;;;;5.67;5.20;;;;;;;;;;7380945;19;20144;-65
2023/01/01 00:19:47;;;;;;;4.23;3.83;;;;;;;;;;7382267;19;20121;-65
2023/01/01 00:22:12;;;;;;;5.20;3.53;;;;;;;;;;7386788;19;20117;-65
2023/01/01 00:24:38;;;;;;;3.33;3.03;;;;;;;;;;7385381;19;20152;-65
2023/01/01 00:27:03;;;;;;;3.33;2.70;;;;;;;;;;7382096;19;20120;-65
2023/01/01 00:29:28;;;;;;;3.30;3.00;;;;;;;;;;7379724;19;20512;-65
2023/01/01 00:31:54;;;;;;;2.90;2.70;;;;;;;;;;7379259;19;20150;-65
2023/01/01 00:34:19;;;;;;;2.63;2.43;;;;;;;;;;7381902;19;20149;-65
2023/01/01 00:36:44;;;;;;;4.13;3.70;;;;;;;;;;7382346;19;20117;-65
2023/01/01 00:39:09;;;;;;;2.35;1.40;;;;;;;;;;7380733;19;20143;-65
2023/01/01 00:41:35;;;;;;;2.25;1.60;;;;;;;;;;7379571;19;20144;-65
2023/01/01 00:44:00;;;;;;;3.03;2.03;;;;;;;;;;7373574;19;20160;-65
2023/01/01 00:46:25;;;;;;;2.55;1.40;;;;;;;;;;7373900;19;20501;-65
2023/01/01 00:48:51;;;;;;;0.75;0.75;;;;;;;;;;7373815;19;20124;-65
2023/01/01 00:51:16;;;;;;;0.63;0.63;;;;;;;;;;7377471;19;20137;-65
2023/01/01 00:53:41;;;;;;;0.50;0.50;;;;;;;;;;7381026;19;20149;-65
2023/01/01 00:56:07;;;;;;;0.75;0.75;;;;;;;;;;7380570;19;20144;-65
2023/01/01 00:58:32;;;;;;;0.63;0.63;;;;;;;;;;7383352;19;20121;-65
2023/01/01 01:00:58;;;;;;;0.88;0.88;;;;;;;;;;7384971;19;20872;-65
2023/01/01 01:03:29;;;;;;;0.35;0.35;;;;;;;;;;7376084;19;20773;-65
2023/01/01 01:06:03;;;;;;;0.50;0.50;;;;;;;;;;7381395;19;20150;-65
2023/01/01 01:08:30;;;;;;;0.60;0.60;;;;;;;;;;7383083;19;20171;-65
2023/01/01 01:11:22;;;;;;;0.50;0.50;;;;;;;;;;7380883;19;20147;-65
2023/01/01 01:13:50;;;;;;;1.30;1.20;;;;;;;;;;7376909;19;20164;-65
2023/01/01 01:16:19;;;;;;;0.43;0.43;;;;;;;;;;7382382;19;20121;-65
2023/01/01 01:18:46;;;;;;;0.75;0.75;;;;;;;;;;7384341;19;20212;-65
2023/01/01 01:21:16;;;;;;;0.40;0.40;;;;;;;;;;7381813;19;20117;-65
2023/01/01 01:23:41;;;;;;;0.83;0.83;;;;;;;;;;7384704;19;20569;-65
2023/01/01 01:26:14;;;;;;;0.43;0.43;;;;;;;;;;7379317;19;20125;-65
2023/01/01 01:28:40;;;;;;;0.30;0.30;;;;;;;;;;7383393;19;20140;-65
2023/01/01 01:31:06;;;;;;;0.40;0.40;;;;;;;;;;7378319;19;20120;-65
2023/01/01 01:33:31;;;;;;;0.30;0.30;;;;;;;;;;7382065;19;20153;-63
2023/01/01 01:35:56;;;;;;;0.30;0.30;;;;;;;;;;7383659;19;20124;-65
2023/01/01 01:38:22;;;;;;;0.73;0.73;;;;;;;;;;7378477;19;20133;-64
2023/01/01 01:40:47;;;;;;;0.30;0.30;;;;;;;;;;7391128;19;20695;-64
2023/01/01 01:43:24;;;;;;;0.30;0.30;;;;;;;;;;7383410;19;20151;-64
2023/01/01 01:45:54;;;;;;;0.37;0.37;;;;;;;;;;7389784;19;20661;-64
2023/01/01 01:48:20;;;;;;;0.77;0.77;;;;;;;;;;7386899;19;20125;-64
2023/01/01 01:50:46;;;;;;;0.53;0.53;;;;;;;;;;7385861;19;20125;-64
2023/01/01 01:53:21;;;;;;;0.67;0.67;;;;;;;;;;7387723;19;20210;-64
2023/01/01 01:55:50;;;;;;;1.10;1.00;;;;;;;;;;7386686;19;20144;-64
2023/01/01 01:58:16;;;;;;;0.97;0.97;;;;;;;;;;7390303;19;20136;-64
2023/01/01 02:00:41;;;;;;;0.50;0.50;;;;;;;;;;7383857;19;23311;-64
2023/01/01 02:03:32;;;;;;;0.70;0.70;;;;;;;;;;7389836;19;20149;-64
2023/01/01 02:05:58;;;;;;;0.30;0.30;;;;;;;;;;7384352;19;20466;-64
2023/01/01 02:08:24;;;;;;;0.40;0.40;;;;;;;;;;7387081;19;20128;-64
2023/01/01 02:10:49;;;;;;;0.77;0.77;;;;;;;;;;7388581;19;20125;-64
2023/01/01 02:13:15;;;;;;;3.70;1.00;;;;;;;;;;7388226;19;20153;-64
2023/01/01 02:16:05;;;;;;;0.50;0.50;;;;;;;;;;7389131;19;20463;-64
2023/01/01 02:18:39;;;;;;;0.50;0.50;;;;;;;;;;7386239;19;20129;-64
2023/01/01 02:21:13;;;;;;;0.53;0.53;;;;;;;;;;7383718;19;20121;-64
2023/01/01 02:23:43;;;;;;;0.40;0.40;;;;;;;;;;7387863;19;20176;-64
2023/01/01 02:26:37;;;;;;;1.60;1.50;;;;;;;;;;7389283;19;20140;-64
2023/01/01 02:29:09;;;;;;;0.87;0.87;;;;;;;;;;7386493;19;20132;-64
2023/01/01 02:31:41;;;;;;;0.50;0.50;;;;;;;;;;7388482;19;20146;-64
2023/01/01 02:34:10;;;;;;;0.63;0.53;;;;;;;;;;7384811;19;20145;-64
2023/01/01 02:36:40;;;;;;;0.63;0.63;;;;;;;;;;7385355;19;20459;-64
2023/01/01 02:39:06;;;;;;;0.50;0.50;;;;;;;;;;7390494;19;20117;-64
2023/01/01 02:41:40;;;;;;;0.37;0.37;;;;;;;;;;7382282;19;20182;-64
2023/01/01 02:44:06;;;;;;;0.50;0.50;;;;;;;;;;7375558;19;20620;-64
2023/01/01 02:46:32;;;;;;;0.40;0.40;;;;;;;;;;7387162;19;20121;-63
2023/01/01 02:48:58;;;;;;;1.03;1.03;;;;;;;;;;7385073;19;20141;-65
2023/01/01 02:51:32;;;;;;;0.60;0.60;;;;;;;;;;7383218;19;20471;-64
2023/01/01 02:54:05;;;;;;;0.40;0.40;;;;;;;;;;7384436;19;20152;-64
2023/01/01 02:56:37;;;;;;;0.47;0.47;;;;;;;;;;7385747;19;20145;-64
2023/01/01 03:02:36;;;;;;;1.80;0.60;;;;;;;;;;7383549;19;20108;-65
2023/01/01 03:06:19;;;;;;;0.70;0.70;;;;;;;;;;7388570;19;20153;-64
2023/01/01 03:08:26;;;;;;;0.73;0.73;;;;;;;;;;7385944;19;20136;-65
2023/01/01 03:10:59;;;;;;;0.97;0.97;;;;;;;;;;7389211;19;20138;-65
2023/01/01 03:13:35;;;;;;;0.87;0.77;;;;;;;;;;7386540;19;20159;-65
2023/01/01 03:16:18;;;;;;;0.70;0.70;;;;;;;;;;7380711;19;20127;-64
2023/01/01 03:19:09;;;;;;;0.70;0.70;;;;;;;;;;7381743;19;20368;-65
2023/01/01 03:21:38;;;;;;;1.33;0.83;;;;;;;;;;7384592;19;20144;-65
2023/01/01 03:24:04;;;;;;;1.03;0.97;;;;;;;;;;7378362;19;20618;-64
2023/01/01 03:26:33;;;;;;;0.50;0.50;;;;;;;;;;7381264;19;20128;-65
2023/01/01 03:29:00;;;;;;;0.30;0.30;;;;;;;;;;7384943;19;20117;-65
2023/01/01 03:31:26;;;;;;;0.40;0.40;;;;;;;;;;7383038;19;20129;-65
2023/01/01 03:34:04;;;;;;;0.87;0.87;;;;;;;;;;7388003;19;20486;-65
2023/01/01 03:36:35;;;;;;;0.70;0.70;;;;;;;;;;7387883;19;20217;-65
2023/01/01 03:39:05;;;;;;;0.43;0.43;;;;;;;;;;7381892;19;20595;-65
2023/01/01 03:41:37;;;;;;;1.40;0.70;;;;;;;;;;7383016;19;20635;-65
2023/01/01 03:44:03;;;;;;;0.57;0.57;;;;;;;;;;7377727;19;20153;-65
2023/01/01 03:46:30;;;;;;;0.40;0.40;;;;;;;;;;7384330;19;20117;-65
2023/01/01 03:48:56;;;;;;;0.40;0.40;;;;;;;;;;7383377;19;20213;-63
2023/01/01 03:51:39;;;;;;;0.20;0.20;;;;;;;;;;7378992;19;20531;-64
2023/01/01 03:54:33;;;;;;;0.40;0.40;;;;;;;;;;7375626;19;20678;-64
2023/01/01 03:57:04;;;;;;;0.67;0.67;;;;;;;;;;7384966;19;20500;-64
2023/01/01 03:59:39;;;;;;;0.50;0.50;;;;;;;;;;7383209;19;20128;-64
2023/01/01 04:02:06;;;;;;;0.30;0.30;;;;;;;;;;7377159;19;20140;-64
2023/01/01 04:04:33;;;;;;;0.40;0.40;;;;;;;;;;7382574;19;20156;-64
2023/01/01 04:06:58;;;;;;;0.57;0.57;;;;;;;;;;7377755;19;20125;-64
2023/01/01 04:09:29;;;;;;;1.17;0.83;;;;;;;;;;7373490;19;20629;-64
2023/01/01 04:12:05;;;;;;;2.10;0.73;;;;;;;;;;7375749;19;20140;-64
2023/01/01 04:14:39;;;;;;;0.93;0.93;;;;;;;;;;7375138;19;20155;-64
2023/01/01 04:17:05;;;;;;;0.53;0.53;;;;;;;;;;7380021;19;20120;-64
2023/01/01 04:19:30;;;;;;;0.80;0.77;;;;;;;;;;7382018;19;20692;-64
2023/01/01 04:21:56;;;;;;;0.50;0.50;;;;;;;;;;7383382;19;20215;-66
2023/01/01 04:24:22;;;;;;;0.73;0.73;;;;;;;;;;7367619;19;20240;-65
2023/01/01 04:26:49;;;;;;;0.70;0.70;;;;;;;;;;7353703;19;20113;-65
2023/01/01 04:29:14;;;;;;;0.60;0.60;;;;;;;;;;7372054;19;20541;-64
2023/01/01 04:31:39;;;;;;;0.30;0.30;;;;;;;;;;7369342;19;20121;-64
2023/01/01 04:34:05;;;;;;;0.28;0.28;;;;;;;;;;7375149;19;20693;-65
2023/01/01 04:36:30;;;;;;;0.30;0.30;;;;;;;;;;7374807;19;20141;-65
2023/01/01 04:38:55;;;;;;;0.57;0.55;;;;;;;;;;7367116;19;22939;-65
2023/01/01 04:41:21;;;;;;;0.40;0.40;;;;;;;;;;7379437;19;20149;-65
2023/01/01 04:43:50;;;;;;;0.57;0.57;;;;;;;;;;7376487;19;20149;-65
2023/01/01 04:46:16;;;;;;;0.38;0.38;;;;;;;;;;7371668;19;20125;-65
2023/01/01 04:48:42;;;;;;;0.40;0.40;;;;;;;;;;7374498;19;20125;-65
2023/01/01 04:51:08;;;;;;;0.50;0.50;;;;;;;;;;7377451;19;20143;-65
2023/01/01 04:53:34;;;;;;;0.63;0.63;;;;;;;;;;7373148;19;20193;-65
2023/01/01 04:56:11;;;;;;;0.40;0.40;;;;;;;;;;7378660;19;20121;-65
2023/01/01 04:58:37;;;;;;;0.68;0.50;;;;;;;;;;7371024;19;20192;-65
2023/01/01 05:01:04;;;;;;;0.50;0.50;;;;;;;;;;7352110;19;20124;-65
2023/01/01 05:03:29;;;;;;;0.93;0.93;;;;;;;;;;7356305;19;21055;-66
2023/01/01 05:06:05;;;;;;;0.93;0.50;;;;;;;;;;7377509;19;20134;-65
2023/01/01 05:08:31;;;;;;;0.38;0.38;;;;;;;;;;7380443;19;20129;-65
2023/01/01 05:11:01;;;;;;;0.35;0.35;;;;;;;;;;7374829;19;20147;-65
2023/01/01 05:13:26;;;;;;;0.63;0.63;;;;;;;;;;7384859;19;20151;-65
2023/01/01 05:15:52;;;;;;;0.40;0.40;;;;;;;;;;7382428;19;20568;-66
2023/01/01 05:18:17;;;;;;;0.32;0.32;;;;;;;;;;7384120;19;20136;-65
2023/01/01 05:20:42;;;;;;;0.40;0.40;;;;;;;;;;7386105;19;20716;-65
2023/01/01 05:23:07;;;;;;;0.50;0.50;;;;;;;;;;7387988;19;20149;-65
2023/01/01 05:25:33;;;;;;;0.88;0.88;;;;;;;;;;7388010;19;20125;-65
2023/01/01 05:27:58;;;;;;;0.28;0.28;;;;;;;;;;7386385;19;20125;-65
2023/01/01 05:30:23;;;;;;;0.40;0.40;;;;;;;;;;7389296;19;20133;-65
2023/01/01 05:32:49;;;;;;;0.57;0.57;;;;;;;;;;7387846;19;20153;-65
2023/01/01 05:35:14;;;;;;;0.60;0.60;;;;;;;;;;7387494;19;20517;-65
2023/01/01 05:37:39;;;;;;;0.45;0.45;;;;;;;;;;7373678;19;20686;-64
2023/01/01 05:40:05;;;;;;;0.43;0.40;;;;;;;;;;7390494;19;20157;-64
2023/01/01 05:42:31;;;;;;;0.32;0.32;;;;;;;;;;7382970;19;20140;-65
2023/01/01 05:44:56;;;;;;;0.40;0.40;;;;;;;;;;7384333;19;20559;-63
2023/01/01 05:47:21;;;;;;;0.57;0.57;;;;;;;;;;7382205;19;20129;-64
2023/01/01 05:49:46;;;;;;;0.40;0.40;;;;;;;;;;7376236;19;20117;-65
2023/01/01 05:52:12;;;;;;;0.57;0.57;;;;;;;;;;7386083;19;20117;-65
2023/01/01 05:54:37;;;;;;;0.30;0.30;;;;;;;;;;7386543;19;20145;-65
2023/01/01 05:57:02;;;;;;;0.40;0.40;;;;;;;;;;7388526;19;20125;-65
2023/01/01 05:59:27;;;;;;;0.50;0.50;;;;;;;;;;7389866;19;20638;-64
2023/01/01 06:01:53;;;;;;;1.40;0.93;;;;;;;;;;7382241;19;20136;-64
2023/01/01 06:04:18;;;;;;;0.30;0.30;;;;;;;;;;7387924;19;20144;-64
2023/01/01 06:06:43;;;;;;;0.63;0.60;;;;;;;;;;7383333;19;20201;-64
2023/01/01 06:09:09;;;;;;;0.60;0.60;;;;;;;;;;7388154;19;20141;-64
2023/01/01 06:11:34;;;;;;;0.38;0.38;;;;;;;;;;7384346;19;20125;-64
2023/01/01 06:14:00;;;;;;;0.38;0.38;;;;;;;;;;7385226;19;20145;-64
2023/01/01 06:16:26;;;;;;;0.35;0.35;;;;;;;;;;7386860;19;20140;-64
2023/01/01 06:18:52;;;;;;;0.40;0.40;;;;;;;;;;7381246;19;20121;-65
2023/01/01 06:21:20;;;;;;;0.63;0.60;;;;;;;;;;7385782;19;20221;-64
2023/01/01 06:23:45;;;;;;;0.47;0.47;;;;;;;;;;7385503;19;20157;-64
2023/01/01 06:26:15;;;;;;;0.40;0.40;;;;;;;;;;7380773;19;20117;-64
2023/01/01 06:28:41;;;;;;;0.40;0.40;;;;;;;;;;7384190;19;20125;-64
2023/01/01 06:31:09;;;;;;;0.60;0.60;;;;;;;;;;7376586;19;20121;-64
2023/01/01 06:33:35;;;;;;;0.30;0.30;;;;;;;;;;7376588;19;20149;-65
2023/01/01 06:36:02;;;;;;;0.30;0.30;;;;;;;;;;7377855;19;20148;-64
2023/01/01 06:38:31;;;;;;;0.43;0.43;;;;;;;;;;7382231;19;20125;-65
2023/01/01 06:41:00;;;;;;;0.55;0.55;;;;;;;;;;7378608;19;20121;-65
2023/01/01 06:43:26;;;;;;;0.52;0.52;;;;;;;;;;7387145;19;20674;-64
2023/01/01 06:46:16;;;;;;;0.40;0.40;;;;;;;;;;7375678;19;20463;-64
2023/01/01 06:48:42;;;;;;;0.43;0.43;;;;;;;;;;7385366;19;20129;-64
2023/01/01 06:51:10;;;;;;;0.40;0.40;;;;;;;;;;7385173;19;20146;-64
2023/01/01 06:53:36;;;;;;;0.30;0.30;;;;;;;;;;7383553;19;20502;-65
2023/01/01 06:56:01;;;;;;;0.30;0.30;;;;;;;;;;7382596;19;20113;-64
2023/01/01 06:58:27;;;;;;;0.30;0.30;;;;;;;;;;7380234;19;20125;-64
2023/01/01 07:00:52;;;;;;;0.50;0.47;;;;;;;;;;7381676;19;20177;-64
2023/01/01 07:03:17;;;;;;;0.30;0.30;;;;;;;;;;7376855;19;20675;-64
2023/01/01 07:05:43;;;;;;;0.32;0.32;;;;;;;;;;7383965;19;20415;-64
2023/01/01 07:08:08;;;;;;;0.30;0.30;;;;;;;;;;7385166;19;20124;-64
2023/01/01 07:10:33;;;;;;;0.70;0.70;;;;;;;;;;7377434;19;20120;-64
2023/01/01 07:12:59;;;;;;;0.30;0.30;;;;;;;;;;7385861;19;20156;-64
2023/01/01 07:15:25;;;;;;;0.52;0.52;;;;;;;;;;7377629;19;20591;-64
2023/01/01 07:17:50;;;;;;;0.30;0.30;;;;;;;;;;7385525;19;20129;-64
2023/01/01 07:20:16;;;;;;;0.30;0.30;;;;;;;;;;7385182;19;20133;-64
2023/01/01 07:22:41;;;;;;;0.35;0.35;;;;;;;;;;7384516;19;20166;-64
2023/01/01 07:25:06;;;;;;;2.23;0.40;;;;;;;;;;7388927;19;20123;-64
2023/01/01 07:27:32;;;;;;;0.40;0.40;;;;;;;;;;7382159;19;20121;-64
2023/01/01 07:29:57;;;;;;;0.60;0.60;;;;;;;;;;7383233;19;20464;-64
2023/01/01 07:32:22;;;;;;;0.30;0.30;;;;;;;;;;7379792;19;20138;-64
2023/01/01 07:34:48;;;;;;;0.73;0.73;;;;;;;;;;7387442;19;20129;-64
2023/01/01 07:37:13;;;;;;;0.50;0.50;;;;;;;;;;7381892;19;20503;-64
2023/01/01 07:39:38;;;;;;;0.60;0.60;;;;;;;;;;7382485;19;20121;-64
2023/01/01 07:42:03;;;;;;;0.77;0.77;;;;;;;;;;7384941;19;20121;-64
2023/01/01 07:44:29;;;;;;;0.30;0.30;;;;;;;;;;7365393;19;20916;-64
2023/01/01 07:47:04;;;;;;;0.30;0.30;;;;;;;;;;7380652;19;20120;-64
2023/01/01 07:49:30;;;;;;;0.20;0.20;;;;;;;;;;7382059;19;20488;-64
2023/01/01 07:51:55;;;;;;;0.70;0.50;;;;;;;;;;7380858;19;20113;-64
2023/01/01 07:54:20;;;;;;;0.50;0.50;;;;;;;;;;7380233;19;20683;-65
2023/01/01 07:56:46;;;;;;;0.30;0.30;;;;;;;;;;7376320;19;20137;-65
2023/01/01 07:59:11;;;;;;;0.30;0.30;;;;;;;;;;7386507;19;20217;-65
2023/01/01 08:01:36;;;;;;;0.50;0.50;;;;;;;;;;7374573;19;20525;-65
2023/01/01 08:04:03;;;;;;;0.30;0.30;;;;;;;;;;7381592;19;20151;-64
2023/01/01 08:06:28;;;;;;;0.30;0.30;;;;;;;;;;7369133;19;20127;-64
2023/01/01 08:08:53;;;;;;;0.33;0.33;;;;;;;;;;7367510;19;20503;-64
2023/01/01 08:11:19;;;;;;;0.47;0.47;;;;;;;;;;7380526;19;20517;-64
2023/01/01 08:13:44;;;;;;;0.50;0.50;;;;;;;;;;7379016;19;20144;-64
2023/01/01 08:16:09;;;;;;;0.30;0.30;;;;;;;;;;7376622;19;20556;-64
2023/01/01 08:18:35;;;;;;;0.47;0.47;;;;;;;;;;7362340;19;20204;-64
2023/01/01 08:21:00;;;;;;;0.30;0.30;;;;;;;;;;7371094;19;20500;-64
2023/01/01 08:23:26;;;;;;;0.40;0.40;;;;;;;;;;7374362;19;20200;-64
2023/01/01 08:25:51;;;;;;;0.30;0.30;;;;;;;;;;7378533;19;20125;-64
2023/01/01 08:28:16;;;;;;;0.50;0.40;;;;;;;;;;7376958;19;20117;-64
2023/01/01 08:30:42;;;;;;;0.30;0.30;;;;;;;;;;7380513;19;20192;-64
2023/01/01 08:33:07;;;;;;;0.30;0.30;;;;;;;;;;7379114;19;20686;-64
2023/01/01 08:35:36;;;;;;;5.63;1.10;;;;;;;;;;7361173;19;20130;-64
2023/01/01 08:38:02;;;;;;;0.30;0.30;;;;;;;;;;7360226;19;20128;-64
2023/01/01 08:40:27;;;;;;;4.50;0.65;;;;;;;;;;7366845;19;20172;-64
2023/01/01 08:42:52;;;;;;;0.60;0.60;;;;;;;;;;7365377;19;20156;-64
2023/01/01 08:45:18;;;;;;;0.30;0.30;;;;;;;;;;7355686;19;20405;-64
2023/01/01 08:47:43;;;;;;;0.30;0.30;;;;;;;;;;7365607;19;20746;-64
2023/01/01 08:50:09;;;;;;;0.30;0.30;;;;;;;;;;7364220;19;20192;-64
2023/01/01 08:52:34;;;;;;;0.32;0.32;;;;;;;;;;7358083;19;20121;-64
2023/01/01 08:54:59;;;;;;;0.30;0.30;;;;;;;;;;7351914;19;20983;-64
2023/01/01 08:57:25;;;;;;;0.40;0.40;;;;;;;;;;7365812;19;20144;-64
2023/01/01 08:59:50;;;;;;;0.93;0.47;;;;;;;;;;7373138;19;20149;-64
2023/01/01 09:02:15;;;;;;;0.30;0.30;;;;;;;;;;7372544;19;20129;-64
2023/01/01 09:04:41;;;;;;;0.20;0.20;;;;;;;;;;7366092;19;20159;-64
2023/01/01 09:07:06;;;;;;;0.40;0.40;;;;;;;;;;7379979;19;20134;-64
2023/01/01 09:09:31;;;;;;;1.05;0.75;;;;;;;;;;7380626;19;20129;-65
2023/01/01 09:12:00;;;;;;;0.30;0.30;;;;;;;;;;7378943;19;20117;-64
2023/01/01 09:14:25;;;;;;;0.30;0.30;;;;;;;;;;7375830;19;20768;-64
2023/01/01 09:16:51;;;;;;;0.30;0.30;;;;;;;;;;7378882;19;20291;-64
2023/01/01 09:19:16;;;;;;;0.45;0.45;;;;;;;;;;7379505;19;20148;-64
2023/01/01 09:21:41;;;;;;;0.60;0.60;;;;;;;;;;7380608;19;20122;-64
2023/01/01 09:24:07;;;;;;;0.93;0.93;;;;;;;;;;7375941;19;20488;-64
2023/01/01 09:26:32;;;;;;;0.45;0.45;;;;;;;;;;7378808;19;20141;-64
2023/01/01 09:28:57;;;;;;;0.40;0.40;;;;;;;;;;7378597;19;20289;-64
2023/01/01 09:31:23;;;;;;;0.40;0.40;;;;;;;;;;7381052;19;20626;-64
2023/01/01 09:33:48;;;;;;;0.30;0.30;;;;;;;;;;7383534;19;20571;-64
2023/01/01 09:36:15;;;;;;;0.50;0.50;;;;;;;;;;7376937;19;20579;-64
2023/01/01 09:38:40;;;;;;;0.45;0.45;;;;;;;;;;7378225;19;20133;-64
2023/01/01 09:41:09;;;;;;;0.68;0.68;;;;;;;;;;7372587;19;20469;-65
2023/01/01 09:43:55;;;;;;;0.40;0.40;;;;;;;;;;7362718;19;20152;-65
2023/01/01 09:46:22;;;;;;;0.60;0.60;;;;;;;;;;7374132;19;20753;-65
2023/01/01 09:48:55;;;;;;;0.40;0.40;;;;;;;;;;7375174;19;20133;-65
2023/01/01 09:51:21;;;;;;;1.10;0.57;;;;;;;;;;7367781;19;20138;-65
2023/01/01 09:53:56;;;;;;;0.43;0.40;;;;;;;;;;7379084;19;20611;-65
2023/01/01 09:56:26;;;;;;;0.30;0.30;;;;;;;;;;7370033;19;21991;-65
2023/01/01 09:58:51;;;;;;;0.43;0.43;;;;;;;;;;7375586;19;20121;-65
2023/01/01 10:01:42;;;;;;;0.30;0.30;;;;;;;;;;7380481;19;20134;-65
2023/01/01 10:04:31;;;;;;;0.30;0.30;;;;;;;;;;7379464;19;20149;-65
2023/01/01 10:07:16;;;;;;;0.40;0.40;;;;;;;;;;7383236;19;20491;-65
2023/01/01 10:10:06;;;;;;;0.47;0.47;;;;;;;;;;7380312;19;20211;-65
2023/01/01 10:13:03;;;;;;;0.57;0.57;;;;;;;;;;7384772;19;20137;-65
2023/01/01 10:15:33;;;;;;;0.50;0.50;;;;;;;;;;7379618;19;20132;-65
2023/01/01 10:17:59;;;;;;;0.40;0.40;;;;;;;;;;7387602;19;20133;-65
2023/01/01 10:20:32;;;;;;;0.30;0.30;;;;;;;;;;7389029;19;20172;-65
2023/01/01 10:23:25;;;;;;;0.75;0.73;;;;;;;;;;7382773;19;20756;-64
2023/01/01 10:25:51;;;;;;;0.40;0.40;;;;;;;;;;7380032;19;20480;-64
2023/01/01 10:28:28;;;;;;;0.68;0.47;;;;;;;;;;7384403;19;20131;-65
2023/01/01 10:31:13;;;;;;;0.40;0.40;;;;;;;;;;7376595;19;20124;-64
2023/01/01 10:33:38;;;;;;;0.57;0.57;;;;;;;;;;7376333;19;20153;-65
2023/01/01 10:36:04;;;;;;;0.50;0.50;;;;;;;;;;7373668;19;20132;-65
2023/01/01 10:38:29;;;;;;;0.22;0.22;;;;;;;;;;7383128;19;20133;-65
2023/01/01 10:41:00;;;;;;;0.30;0.30;;;;;;;;;;7368257;19;20607;-65
2023/01/01 10:43:25;;;;;;;0.30;0.30;;;;;;;;;;7365904;19;20173;-65
2023/01/01 10:45:52;;;;;;;0.77;0.50;;;;;;;;;;7371020;19;20121;-65
2023/01/01 10:48:26;;;;;;;0.55;0.55;;;;;;;;;;7371678;19;20125;-65
2023/01/01 10:50:54;;;;;;;0.50;0.50;;;;;;;;;;7365761;19;20614;-65
2023/01/01 10:53:24;;;;;;;0.50;0.50;;;;;;;;;;7376980;19;20144;-66
2023/01/01 22:55:38;;;;;;;0.57;0.57;;;;;;;;;;7368348;19;20252;-65
2023/01/01 22:58:03;;;;;;;0.60;0.50;;;;;;;;;;7360587;19;20995;-64
2023/01/01 23:00:29;;;;;;;1.60;1.00;;;;;;;;;;7377209;19;20124;-65
2023/01/01 23:02:54;;;;;;;0.57;0.57;;;;;;;;;;7380595;19;20172;-64
2023/01/01 23:05:19;;;;;;;0.53;0.53;;;;;;;;;;7378929;19;20166;-64
2023/01/01 23:07:45;;;;;;;1.13;0.97;;;;;;;;;;7384165;19;20191;-64
2023/01/01 23:10:12;;;;;;;0.70;0.70;;;;;;;;;;7389345;19;20460;-64
2023/01/01 23:12:37;;;;;;;0.80;0.60;;;;;;;;;;7387073;19;20676;-64
2023/01/01 23:17:47;;;;;;;0.50;0.50;;;;;;;;;;7391428;19;20610;-64
2023/01/01 23:20:12;;;;;;;0.30;0.30;;;;;;;;;;7386305;19;20122;-64
2023/01/01 23:22:40;;;;;;;0.50;0.50;;;;;;;;;;7390809;19;20142;-64
2023/01/01 23:25:08;;;;;;;0.40;0.40;;;;;;;;;;7391983;19;20136;-64
2023/01/01 23:27:34;;;;;;;0.93;0.63;;;;;;;;;;7379504;19;20658;-64
2023/01/01 23:30:00;;;;;;;0.40;0.40;;;;;;;;;;7387699;19;20169;-64
2023/01/01 23:32:25;;;;;;;0.30;0.30;;;;;;;;;;7373775;19;20117;-64
2023/01/01 23:34:51;;;;;;;0.50;0.50;;;;;;;;;;7384148;19;20524;-64
2023/01/01 23:37:16;;;;;;;0.40;0.40;;;;;;;;;;7379545;19;20138;-64
2023/01/01 23:39:42;;;;;;;0.63;0.63;;;;;;;;;;7369493;19;20121;-64
2023/01/01 23:42:07;;;;;;;0.50;0.50;;;;;;;;;;7376093;19;20359;-64
2023/01/01 23:44:32;;;;;;;3.80;0.90;;;;;;;;;;7365594;19;20153;-64
2023/01/01 23:46:58;;;;;;;0.57;0.57;;;;;;;;;;7375432;19;20117;-64
2023/01/01 23:49:24;;;;;;;0.70;0.70;;;;;;;;;;7376249;19;20121;-64
2023/01/01 23:51:49;;;;;;;0.60;0.60;;;;;;;;;;7379937;19;20498;-64
2023/01/01 23:54:15;;;;;;;0.80;0.80;;;;;;;;;;7382081;19;20156;-64
2023/01/01 23:56:40;;;;;;;1.30;0.60;;;;;;;;;;7379845;19;20125;-64
2023/01/01 23:59:05;;;;;;;0.70;0.70;;;;;;;;;;7380981;19;20125;-64
